Detall de PIREP

Printer-friendly versionPDF version

[2012/07/06 18:36:00]
Flight IATA:CT0001
Pilot Number:044
Company ICAO:CAT
Aircraft Type:BE58/A
PAX:4
Departing Airport: LEVC
Destination Airport: LEPA
Alternate Airport:LEIB
Online: VATSIM
Route:NINOT G30 IZA
Flight Level:F140
No Slew and time accel
No pause
Crash detect
Detect pilot in Cockpit between each 30 and 45 minutes
18:36 Zero fuel Weight: 4592 Lbs, Fuel Weight: 848 Lbs
18:36 VATSIM:LEVC 061600Z 10013KT 070V130 9999 FEW025 27/19 Q1012 NOSIG
18:36 VATSIM:LEPA 061600Z 22009KT 190V260 9999 FEW030 SCT045 29/20 Q1013 NOSIG
18:36 VOICE CATALONIAN
18:37 Parking Brakes off
18:47 Take-off
18:47 Take off Weight: 5435 Lbs
18:47 Wind: 091º @ 013 Knots Heading: 114º
18:47 POS N39º 29´ 31´´ W000º 29´ 21´´
18:47 Gear Up: 123 Knots
19:02 Wind:091º@026 Knots Heading: 106º Ground Speed: 159 Knots Altitude 12414 ft
19:03 TOC
19:03 Fuel Weight: 785 Lb
19:17 Wind:080º@026 Knots Heading: 111º Ground Speed: 188 Knots Altitude 13992 ft
19:17 TOD
19:17 Fuel Weight: 737 Lb
19:32 Wind:093º@016 Knots Heading: 079º Ground Speed: 149 Knots Altitude 6128 ft
19:47 Wind:228º@012 Knots Heading: 055º Ground Speed: 191 Knots Altitude 3211 ft
20:02 Wind:229º@008 Knots Heading: 271º Ground Speed: 148 Knots Altitude 2496 ft
20:04 Gear Down: 157 Knots
20:04 Flaps:1 at 157 Knots
20:05 Flaps:2 at 108 Knots
20:05 TouchDown:Rate -145 ft/min Speed: 81 Knots
20:05 Flaps:0 at 80 Knots
20:06 VATSIM:LEPA 061730Z 23008KT 200V270 9999 FEW030 SCT040 27/20 Q1012 NOSIG
20:06 Land
20:06 Wind:244º@009 Knots
20:06 Heading: 239º
20:06 Flight Duration: 01:19
20:06 Landing Weight: 5239 Lbs
20:06 POS N39º 32´ 59´´ E002º 44´ 59´´
20:16 Parking brakes on
20:16 Block to Block Duration: 01:39
20:16 Final Fuel: 645 Lbls
20:16 Spent Fuel: 202 Lbls
20:16 Flight Length: 206 NM
20:16 TOD Land Length: 126 NM

Exportar CSV

Powered by Drupal - Modified by Danger4k